Time;durP1;ratioP1;P1;durP2;ratioP2;P2;SDS_P1;SDS_P2;PMS_P1;PMS_P2;Temp;Humidity;BMP_temperature;BMP_pressure;BME280_temperature;BME280_humidity;BME280_pressure;Samples;Min_cycle;Max_cycle;Signal;HPM_P1;HPM_P2
2022/02/09 00:07:48;;;;;;;22.90;9.88;;;;;;;;;;4860853;29;20064;-74
2022/02/09 00:10:14;;;;;;;21.27;10.65;;;;;;;;;;4868682;29;20627;-74
2022/02/09 00:12:56;;;;;;;27.17;10.68;;;;;;;;;;4858810;29;20169;-74
2022/02/09 00:15:36;;;;;;;37.42;14.05;;;;;;;;;;4864406;29;20037;-74
2022/02/09 01:57:11;;;;;;;90.10;28.90;;;;;;;;;;4861836;29;20059;-74
2022/02/09 01:59:38;;;;;;;93.03;29.48;;;;;;;;;;4875619;29;20045;-74
2022/02/09 02:02:05;;;;;;;84.00;27.98;;;;;;;;;;4875134;29;20033;-74
2022/02/09 02:04:31;;;;;;;87.80;29.58;;;;;;;;;;4875401;29;20115;-74
2022/02/09 02:06:57;;;;;;;98.68;37.10;;;;;;;;;;4875411;29;20439;-74
2022/02/09 02:09:25;;;;;;;81.78;29.30;;;;;;;;;;4875588;29;20562;-74
2022/02/09 02:12:00;;;;;;;118.38;47.72;;;;;;;;;;4874817;29;20041;-75
2022/02/09 02:14:36;;;;;;;99.97;38.20;;;;;;;;;;4864108;29;20730;-74
2022/02/09 02:17:11;;;;;;;75.55;34.60;;;;;;;;;;4879461;24;20072;-74
2022/02/09 02:19:47;;;;;;;57.55;31.13;;;;;;;;;;4841184;29;20030;-74
2022/02/09 02:30:20;;;;;;;19.80;8.52;;;;;;;;;;4851224;29;20055;-74
2022/02/09 02:33:53;;;;;;;14.40;6.80;;;;;;;;;;4851304;29;20061;-74
2022/02/09 02:38:22;;;;;;;10.52;5.88;;;;;;;;;;4857526;29;20069;-74
2022/02/09 02:57:14;;;;;;;17.30;8.75;;;;;;;;;;4845619;29;20400;-74
2022/02/09 03:13:33;;;;;;;5.65;1.42;;;;;;;;;;4840804;29;20080;-74
2022/02/09 03:55:26;;;;;;;8.55;4.13;;;;;;;;;;4851642;29;20125;-75
2022/02/09 03:57:52;;;;;;;11.07;5.18;;;;;;;;;;4855048;29;20045;-74
2022/02/09 04:00:20;;;;;;;8.90;4.28;;;;;;;;;;4843582;29;20044;-74
2022/02/09 04:02:46;;;;;;;12.38;5.78;;;;;;;;;;4825266;29;20033;-74
2022/02/09 04:05:13;;;;;;;10.45;5.28;;;;;;;;;;4840255;29;20029;-74
2022/02/09 04:07:39;;;;;;;9.95;4.85;;;;;;;;;;4851103;29;20041;-74
2022/02/09 04:10:08;;;;;;;7.65;3.13;;;;;;;;;;4853122;29;20655;-74
2022/02/09 04:12:46;;;;;;;7.90;2.38;;;;;;;;;;4840496;29;20495;-74
2022/02/09 04:38:56;;;;;;;14.38;7.03;;;;;;;;;;4854156;29;20045;-74
2022/02/09 04:54:53;;;;;;;20.90;10.40;;;;;;;;;;4852963;29;20038;-74
2022/02/09 05:29:27;;;;;;;37.10;14.70;;;;;;;;;;4827723;29;20033;-74
2022/02/09 05:31:53;;;;;;;24.25;9.75;;;;;;;;;;4846099;29;20480;-74
2022/02/09 05:34:19;;;;;;;23.77;9.00;;;;;;;;;;4849862;29;20840;-74
2022/02/09 05:36:45;;;;;;;23.08;10.13;;;;;;;;;;4857603;29;20061;-74
2022/02/09 05:39:12;;;;;;;20.27;8.65;;;;;;;;;;4856166;29;20042;-74
2022/02/09 05:41:44;;;;;;;10.48;4.10;;;;;;;;;;4848610;29;20040;-74
2022/02/09 05:44:11;;;;;;;12.38;3.83;;;;;;;;;;4851113;29;20361;-74
2022/02/09 05:52:15;;;;;;;21.05;8.95;;;;;;;;;;4842686;29;20060;-74
2022/02/09 05:55:25;;;;;;;26.35;11.10;;;;;;;;;;4844295;29;20033;-74
2022/02/09 05:57:52;;;;;;;19.90;8.63;;;;;;;;;;4838829;29;20588;-74
2022/02/09 06:00:18;;;;;;;12.23;4.13;;;;;;;;;;4856014;29;20650;-74
2022/02/09 06:02:45;;;;;;;12.82;4.50;;;;;;;;;;4850150;29;20396;-74
2022/02/09 06:05:16;;;;;;;8.77;3.83;;;;;;;;;;4838420;29;20134;-74
2022/02/09 06:07:42;;;;;;;61.22;29.83;;;;;;;;;;4838741;29;20037;-74
2022/02/09 06:10:15;;;;;;;63.83;31.98;;;;;;;;;;4842204;29;20038;-75
2022/02/09 06:12:50;;;;;;;59.28;28.75;;;;;;;;;;4848838;29;20040;-74
2022/02/09 06:20:57;;;;;;;16.33;8.52;;;;;;;;;;4853728;29;20064;-74
2022/02/09 06:23:24;;;;;;;50.67;22.25;;;;;;;;;;4852158;29;20105;-74
2022/02/09 06:25:50;;;;;;;24.02;13.63;;;;;;;;;;4855950;29;20042;-74
2022/02/09 06:28:16;;;;;;;15.35;8.60;;;;;;;;;;4856780;29;20040;-74
2022/02/09 06:30:42;;;;;;;15.27;7.70;;;;;;;;;;4853283;29;20041;-74
2022/02/09 06:33:08;;;;;;;19.40;11.15;;;;;;;;;;4855438;29;20429;-74
2022/02/09 06:35:34;;;;;;;18.63;8.32;;;;;;;;;;4850658;29;20040;-74
2022/02/09 06:38:01;;;;;;;16.38;9.43;;;;;;;;;;4859344;29;20090;-74
2022/02/09 06:40:28;;;;;;;26.17;17.45;;;;;;;;;;4847579;29;20116;-73
2022/02/09 06:42:54;;;;;;;45.63;31.15;;;;;;;;;;4846193;29;20511;-74
2022/02/09 06:45:27;;;;;;;39.45;29.40;;;;;;;;;;4853814;29;20029;-75
2022/02/09 06:47:54;;;;;;;18.35;11.43;;;;;;;;;;4851407;29;20034;-74
2022/02/09 06:50:37;;;;;;;17.98;7.65;;;;;;;;;;4854207;29;20030;-74
2022/02/09 06:53:15;;;;;;;13.70;7.63;;;;;;;;;;4858641;29;20140;-74
2022/02/09 06:55:49;;;;;;;13.18;7.00;;;;;;;;;;4844943;29;20124;-75
2022/02/09 06:58:22;;;;;;;18.30;8.18;;;;;;;;;;4848365;29;20842;-74
2022/02/09 07:00:48;;;;;;;17.52;8.77;;;;;;;;;;4841224;29;20037;-75
2022/02/09 07:03:14;;;;;;;15.55;8.68;;;;;;;;;;4840110;29;20126;-74
2022/02/09 07:05:41;;;;;;;20.02;9.35;;;;;;;;;;4851647;29;20102;-74
2022/02/09 07:08:07;;;;;;;28.77;15.30;;;;;;;;;;4859111;29;20038;-74
2022/02/09 07:10:33;;;;;;;22.63;12.32;;;;;;;;;;4859729;29;20065;-75
2022/02/09 07:12:59;;;;;;;27.17;15.60;;;;;;;;;;4852433;29;20072;-74
2022/02/09 07:15:33;;;;;;;26.45;13.23;;;;;;;;;;4847743;29;20053;-75
2022/02/09 07:18:06;;;;;;;25.30;11.20;;;;;;;;;;4846211;29;20073;-74
2022/02/09 07:20:41;;;;;;;17.48;10.23;;;;;;;;;;4858800;29;20061;-74
2022/02/09 07:23:17;;;;;;;32.10;15.90;;;;;;;;;;4855781;29;20077;-75
2022/02/09 07:25:47;;;;;;;29.50;14.13;;;;;;;;;;4857342;29;20049;-74
2022/02/09 07:28:14;;;;;;;31.75;16.92;;;;;;;;;;4857699;29;20076;-74
2022/02/09 07:30:40;;;;;;;24.13;10.68;;;;;;;;;;4858994;29;20040;-74
2022/02/09 07:33:08;;;;;;;18.67;9.60;;;;;;;;;;4859678;29;20037;-74
2022/02/09 07:35:38;;;;;;;19.48;10.95;;;;;;;;;;4848095;29;20097;-74
2022/02/09 07:38:04;;;;;;;20.75;12.43;;;;;;;;;;4842118;29;20155;-74
2022/02/09 07:40:30;;;;;;;20.23;12.40;;;;;;;;;;4859306;29;20069;-74
2022/02/09 07:43:03;;;;;;;17.73;9.00;;;;;;;;;;4857598;29;20038;-74
2022/02/09 07:48:37;;;;;;;18.30;8.93;;;;;;;;;;4846917;29;20069;-74
2022/02/09 07:51:55;;;;;;;20.52;8.50;;;;;;;;;;4853267;29;20427;-74
2022/02/09 07:53:50;;;;;;;20.63;9.60;;;;;;;;;;4839495;29;20133;-74
2022/02/09 07:56:17;;;;;;;14.82;7.78;;;;;;;;;;4842880;29;20074;-74
2022/02/09 07:58:44;;;;;;;20.08;8.88;;;;;;;;;;4843320;29;20037;-75
2022/02/09 08:01:10;;;;;;;16.60;9.57;;;;;;;;;;4856802;29;20044;-74
2022/02/09 08:03:36;;;;;;;23.38;11.40;;;;;;;;;;4845124;29;20109;-74
2022/02/09 08:06:02;;;;;;;23.30;12.02;;;;;;;;;;4858067;29;20069;-74
2022/02/09 08:08:31;;;;;;;19.40;9.63;;;;;;;;;;4856827;29;20773;-74
2022/02/09 08:11:10;;;;;;;20.90;9.43;;;;;;;;;;4843056;29;20046;-74
2022/02/09 08:30:03;;;;;;;27.67;8.40;;;;;;;;;;4853722;29;20069;-74
2022/02/09 08:34:56;;;;;;;17.48;7.35;;;;;;;;;;4848933;29;20702;-74
2022/02/09 08:37:22;;;;;;;20.75;8.45;;;;;;;;;;4852546;29;20045;-74
2022/02/09 08:39:49;;;;;;;21.55;7.97;;;;;;;;;;4848692;29;20695;-74
2022/02/09 08:42:15;;;;;;;19.20;8.32;;;;;;;;;;4857232;29;20120;-74
2022/02/09 08:44:41;;;;;;;16.45;7.25;;;;;;;;;;4853190;29;20044;-75
2022/02/09 08:47:08;;;;;;;19.23;9.15;;;;;;;;;;4856368;29;20041;-74
2022/02/09 08:49:34;;;;;;;19.88;8.13;;;;;;;;;;4855403;29;20087;-75
2022/02/09 08:52:00;;;;;;;21.02;7.88;;;;;;;;;;4857607;29;20062;-75
2022/02/09 08:54:27;;;;;;;16.85;7.97;;;;;;;;;;4856309;29;20148;-75
2022/02/09 08:56:55;;;;;;;22.95;12.63;;;;;;;;;;4857294;29;20542;-74
2022/02/09 08:59:27;;;;;;;29.27;13.50;;;;;;;;;;4851676;29;20049;-75
2022/02/09 09:02:05;;;;;;;22.20;10.15;;;;;;;;;;4855009;29;20037;-75
2022/02/09 09:05:11;;;;;;;17.80;9.30;;;;;;;;;;4853323;29;20034;-74
2022/02/09 09:07:29;;;;;;;18.13;8.25;;;;;;;;;;4850080;29;20756;-75
2022/02/09 09:16:43;;;;;;;15.70;7.07;;;;;;;;;;4841848;29;20163;-74
2022/02/09 10:33:17;;;;;;;9.30;3.80;;;;;;;;;;4847450;29;20064;-72
2022/02/09 10:35:48;;;;;;;7.45;2.90;;;;;;;;;;4851348;29;20046;-74
2022/02/09 10:38:28;;;;;;;13.70;3.35;;;;;;;;;;4840483;29;20081;-72
2022/02/09 10:40:56;;;;;;;27.10;3.85;;;;;;;;;;4850867;29;20124;-74
2022/02/09 10:43:31;;;;;;;17.45;3.35;;;;;;;;;;4845474;29;20054;-74
2022/02/09 10:46:19;;;;;;;12.38;4.63;;;;;;;;;;4847026;29;20058;-74
2022/02/09 10:49:04;;;;;;;17.55;5.70;;;;;;;;;;4855937;29;20034;-73
2022/02/09 10:51:36;;;;;;;11.93;3.20;;;;;;;;;;4841727;29;20042;-74
2022/02/09 10:54:02;;;;;;;;;;;;;;;;;;4845050;29;20030;-74
2022/02/09 10:56:29;;;;;;;13.00;3.35;;;;;;;;;;4842743;29;19920;-74
2022/02/09 10:58:58;;;;;;;13.70;2.30;;;;;;;;;;4856303;29;20046;-74
2022/02/09 11:01:24;;;;;;;8.05;2.15;;;;;;;;;;4852922;29;20065;-72
2022/02/09 11:03:51;;;;;;;5.85;1.83;;;;;;;;;;4858893;29;20065;-72
2022/02/09 11:06:18;;;;;;;7.00;2.50;;;;;;;;;;4855535;29;20029;-74
2022/02/09 11:08:44;;;;;;;10.88;2.47;;;;;;;;;;4859054;29;20049;-72
2022/02/09 11:11:11;;;;;;;7.97;2.35;;;;;;;;;;4858202;29;20085;-72
2022/02/09 11:13:37;;;;;;;9.65;3.78;;;;;;;;;;4859157;29;20033;-72
2022/02/09 11:16:04;;;;;;;7.80;3.15;;;;;;;;;;4845984;29;20103;-72
2022/02/09 11:18:30;;;;;;;8.07;2.83;;;;;;;;;;4850083;29;20041;-71
2022/02/09 11:21:02;;;;;;;9.05;4.05;;;;;;;;;;4854727;29;20076;-72
2022/02/09 11:23:49;;;;;;;9.23;3.07;;;;;;;;;;4849606;29;20598;-72
2022/02/09 11:26:28;;;;;;;13.40;3.28;;;;;;;;;;4853894;29;20030;-72
2022/02/09 11:32:05;;;;;;;7.72;2.25;;;;;;;;;;4764710;30;20058;-72
2022/02/09 11:34:55;;;;;;;9.35;2.60;;;;;;;;;;4835508;29;20140;-72
2022/02/09 11:37:30;;;;;;;13.23;4.45;;;;;;;;;;4849344;29;20090;-72
2022/02/09 11:39:59;;;;;;;8.63;2.70;;;;;;;;;;4849716;29;20124;-72
2022/02/09 11:42:27;;;;;;;11.60;3.53;;;;;;;;;;4849368;29;20121;-72
2022/02/09 11:45:02;;;;;;;7.03;2.63;;;;;;;;;;4846476;29;20142;-71
2022/02/09 11:47:38;;;;;;;13.00;3.15;;;;;;;;;;4857063;29;20030;-72
2022/02/09 12:09:16;;;;;;;12.38;3.45;;;;;;;;;;4851168;29;19953;-71
2022/02/09 12:11:47;;;;;;;11.27;3.47;;;;;;;;;;4858183;29;20097;-72
2022/02/09 12:14:33;;;;;;;11.43;4.00;;;;;;;;;;4843605;29;20037;-72
2022/02/09 12:17:26;;;;;;;7.82;2.85;;;;;;;;;;4850869;29;20519;-72
2022/02/09 12:19:53;;;;;;;13.75;3.55;;;;;;;;;;4848567;29;20579;-72
2022/02/09 12:22:21;;;;;;;13.52;2.95;;;;;;;;;;4849412;29;20120;-72
2022/02/09 12:24:54;;;;;;;7.18;2.03;;;;;;;;;;4844751;29;20033;-72
2022/02/09 12:27:21;;;;;;;8.60;2.10;;;;;;;;;;4850446;29;20139;-72
2022/02/09 12:29:48;;;;;;;7.65;2.15;;;;;;;;;;4855107;29;20085;-72
2022/02/09 12:32:17;;;;;;;8.00;1.90;;;;;;;;;;4854242;29;20070;-72
2022/02/09 12:34:44;;;;;;;8.77;2.50;;;;;;;;;;4853999;29;20104;-72
2022/02/09 12:37:11;;;;;;;7.95;2.35;;;;;;;;;;4855140;29;20048;-72
2022/02/09 12:39:50;;;;;;;8.18;2.55;;;;;;;;;;4848761;29;20789;-72
2022/02/09 12:42:18;;;;;;;10.48;3.25;;;;;;;;;;4855685;29;20472;-72
2022/02/09 12:44:56;;;;;;;9.23;2.92;;;;;;;;;;4851625;29;20026;-72
2022/02/09 12:47:22;;;;;;;9.55;2.67;;;;;;;;;;4857047;29;20078;-72
2022/02/09 12:49:48;;;;;;;8.07;2.55;;;;;;;;;;4853055;29;20773;-72
2022/02/09 12:52:16;;;;;;;12.07;2.90;;;;;;;;;;4855217;29;20440;-72
2022/02/09 12:54:42;;;;;;;10.85;2.70;;;;;;;;;;4850638;29;20030;-72
2022/02/09 12:57:08;;;;;;;8.13;2.60;;;;;;;;;;4844321;29;20098;-72
2022/02/09 12:59:34;;;;;;;7.25;2.25;;;;;;;;;;4844351;29;20108;-72
2022/02/09 13:02:00;;;;;;;8.63;2.67;;;;;;;;;;4845804;29;20130;-72
2022/02/09 13:04:28;;;;;;;9.13;2.55;;;;;;;;;;4839977;29;20047;-72
2022/02/09 13:06:54;;;;;;;12.00;2.00;;;;;;;;;;4846100;29;20116;-72
2022/02/09 13:09:20;;;;;;;12.13;2.30;;;;;;;;;;4853917;29;20080;-72
2022/02/09 13:11:46;;;;;;;7.43;1.95;;;;;;;;;;4841140;29;20042;-72
2022/02/09 13:14:18;;;;;;;10.25;2.30;;;;;;;;;;4849730;29;20171;-72
2022/02/09 14:52:23;;;;;;;8.68;3.08;;;;;;;;;;4771743;30;20047;-72
2022/02/09 14:54:58;;;;;;;8.10;3.83;;;;;;;;;;4838145;29;20057;-72
2022/02/09 14:57:33;;;;;;;4.82;1.40;;;;;;;;;;4830741;29;20042;-72
2022/02/09 15:10:31;;;;;;;6.45;1.25;;;;;;;;;;4825154;29;20061;-72
2022/02/09 15:20:45;;;;;;;8.38;1.25;;;;;;;;;;4846238;29;20858;-74
2022/02/09 15:23:12;;;;;;;9.27;0.90;;;;;;;;;;4857021;29;20029;-74
2022/02/09 15:25:38;;;;;;;6.15;1.10;;;;;;;;;;4857500;29;20025;-72
2022/02/09 15:28:06;;;;;;;4.88;1.23;;;;;;;;;;4851631;29;20034;-74
2022/02/09 15:30:43;;;;;;;7.45;1.05;;;;;;;;;;4854165;29;20037;-72
2022/02/09 15:33:09;;;;;;;9.20;0.90;;;;;;;;;;4849576;29;20074;-72
2022/02/09 15:35:39;;;;;;;7.85;1.30;;;;;;;;;;4852436;29;20038;-74
2022/02/09 15:38:15;;;;;;;7.30;1.02;;;;;;;;;;4850740;29;20045;-73
2022/02/09 15:43:56;;;;;;;13.15;1.67;;;;;;;;;;4848231;29;20058;-74
2022/02/09 15:57:44;;;;;;;9.77;2.33;;;;;;;;;;4858735;29;20056;-75
2022/02/09 16:05:42;;;;;;;7.57;1.67;;;;;;;;;;4856404;29;20541;-72
2022/02/09 16:22:00;;;;;;;74.78;44.08;;;;;;;;;;4841842;29;20102;-74
2022/02/09 16:25:06;;;;;;;81.90;49.70;;;;;;;;;;4847694;29;20029;-74
2022/02/09 16:46:51;;;;;;;16.92;7.40;;;;;;;;;;4840164;29;20068;-74
2022/02/09 16:49:29;;;;;;;16.05;7.05;;;;;;;;;;4846650;29;20605;-74
2022/02/09 16:52:03;;;;;;;24.45;10.10;;;;;;;;;;4849551;29;20567;-74
2022/02/09 17:19:02;;;;;;;20.55;10.52;;;;;;;;;;4850379;29;20147;-73
2022/02/09 17:21:29;;;;;;;17.38;9.43;;;;;;;;;;4845989;29;20066;-73
2022/02/09 17:23:57;;;;;;;16.30;7.75;;;;;;;;;;4842670;29;20623;-74
2022/02/09 17:26:23;;;;;;;11.68;5.80;;;;;;;;;;4842419;29;20058;-73
2022/02/09 17:28:57;;;;;;;25.80;9.55;;;;;;;;;;4847161;29;20069;-73
2022/02/09 17:39:25;;;;;;;26.50;13.82;;;;;;;;;;4844728;29;20052;-74
2022/02/09 17:58:17;;;;;;;23.08;11.40;;;;;;;;;;4850809;29;20056;-73
2022/02/09 18:00:44;;;;;;;27.15;11.07;;;;;;;;;;4847703;29;20110;-73
2022/02/09 18:03:11;;;;;;;17.92;9.90;;;;;;;;;;4845651;29;20097;-73
2022/02/09 18:08:16;;;;;;;17.10;6.97;;;;;;;;;;4850331;29;20065;-73
2022/02/09 18:29:21;;;;;;;18.02;11.18;;;;;;;;;;4856594;29;20416;-73
2022/02/09 19:03:00;;;;;;;21.10;10.60;;;;;;;;;;4859329;29;20052;-73
2022/02/09 19:16:29;;;;;;;104.25;61.28;;;;;;;;;;4856594;29;20296;-73
2022/02/09 19:19:10;;;;;;;47.08;24.25;;;;;;;;;;4852731;29;20117;-73
2022/02/09 19:30:00;;;;;;;28.95;15.85;;;;;;;;;;4847654;29;20044;-73
2022/02/09 19:48:19;;;;;;;36.35;19.80;;;;;;;;;;4849632;29;20140;-74
2022/02/09 19:56:12;;;;;;;36.92;22.38;;;;;;;;;;4858737;29;20042;-74
2022/02/09 20:01:04;;;;;;;136.20;74.22;;;;;;;;;;4848750;29;20045;-74
2022/02/09 20:03:30;;;;;;;149.90;77.75;;;;;;;;;;4848323;29;20066;-74
2022/02/09 20:05:57;;;;;;;52.40;26.95;;;;;;;;;;4853525;29;20606;-74
2022/02/09 20:08:23;;;;;;;38.85;23.08;;;;;;;;;;4850770;29;20149;-74
2022/02/09 20:10:49;;;;;;;36.97;20.63;;;;;;;;;;4843932;29;20113;-74
2022/02/09 20:13:15;;;;;;;29.38;18.75;;;;;;;;;;4848062;29;20046;-73
2022/02/09 20:15:41;;;;;;;30.38;17.90;;;;;;;;;;4844401;29;20030;-74
2022/02/09 20:18:07;;;;;;;36.85;19.85;;;;;;;;;;4849893;29;20061;-74
2022/02/09 20:20:35;;;;;;;25.98;15.20;;;;;;;;;;4851239;29;20037;-73
2022/02/09 20:23:02;;;;;;;23.73;14.75;;;;;;;;;;4856064;29;20045;-73
2022/02/09 20:25:28;;;;;;;23.90;13.48;;;;;;;;;;4851235;29;20108;-73
2022/02/09 20:27:55;;;;;;;26.70;14.52;;;;;;;;;;4848935;29;20487;-73
2022/02/09 20:30:26;;;;;;;24.38;12.40;;;;;;;;;;4854592;29;20128;-73
2022/02/09 20:32:57;;;;;;;32.28;17.90;;;;;;;;;;4843513;29;20041;-73
2022/02/09 20:35:24;;;;;;;33.00;19.35;;;;;;;;;;4854545;29;20029;-73
2022/02/09 20:37:53;;;;;;;29.60;19.55;;;;;;;;;;4845425;29;20041;-73
2022/02/09 20:40:34;;;;;;;35.65;18.88;;;;;;;;;;4848731;29;20137;-73
2022/02/09 20:43:01;;;;;;;28.42;17.80;;;;;;;;;;4851759;29;20041;-74
2022/02/09 20:45:36;;;;;;;28.80;16.63;;;;;;;;;;4856593;29;20060;-73
2022/02/09 20:48:06;;;;;;;44.00;22.27;;;;;;;;;;4853941;29;20045;-73
2022/02/09 20:50:34;;;;;;;37.08;20.80;;;;;;;;;;4848469;29;20682;-73
2022/02/09 20:53:00;;;;;;;51.88;27.48;;;;;;;;;;4854582;29;20044;-73
2022/02/09 20:55:27;;;;;;;52.92;28.17;;;;;;;;;;4857423;29;20041;-73
2022/02/09 20:57:53;;;;;;;46.00;24.23;;;;;;;;;;4849582;29;20037;-73
2022/02/09 21:00:27;;;;;;;40.35;22.02;;;;;;;;;;4851610;29;20067;-73
2022/02/09 21:03:07;;;;;;;38.00;22.20;;;;;;;;;;4857281;29;20080;-73
2022/02/09 21:05:50;;;;;;;34.63;19.55;;;;;;;;;;4851678;29;20045;-73
2022/02/09 21:11:12;;;;;;;31.65;15.82;;;;;;;;;;4849395;29;20081;-73
2022/02/09 22:27:44;;;;;;;73.25;27.95;;;;;;;;;;4856556;29;20052;-73
2022/02/09 22:56:38;;;;;;;26.60;12.35;;;;;;;;;;4850456;29;20053;-74
2022/02/09 22:59:10;;;;;;;28.83;15.35;;;;;;;;;;4841486;29;20511;-73
2022/02/09 23:01:45;;;;;;;75.07;35.42;;;;;;;;;;4842497;29;20045;-73
2022/02/09 23:17:57;;;;;;;49.72;23.88;;;;;;;;;;4852123;29;20092;-73
